createdAt,value
2023-03-02T00:00:21.445Z,101932.03
2023-03-02T00:01:26.074Z,101947.34
2023-03-02T00:02:29.458Z,101950.75
2023-03-02T00:03:33.597Z,101931.78
2023-03-02T00:04:45.729Z,101930.66
2023-03-02T00:05:47.640Z,101799.06
2023-03-02T00:06:52.202Z,101952.72
2023-03-02T00:07:54.896Z,101886.38
2023-03-02T00:09:00.739Z,101818.69
2023-03-02T00:10:02.748Z,101932.03
2023-03-02T00:11:05.567Z,101931.28
2023-03-02T00:12:08.515Z,101939.56
2023-03-02T00:13:11.946Z,101873.09
2023-03-02T00:14:13.843Z,101888.44
2023-03-02T00:15:15.726Z,101888.31
2023-03-02T00:16:17.634Z,101749.44
2023-03-02T00:17:27.860Z,101893.31
2023-03-02T00:18:29.842Z,101778.47
2023-03-02T00:19:31.706Z,101947.59
2023-03-02T00:20:34.821Z,101807.69
2023-03-02T00:21:36.660Z,101898.69
2023-03-02T00:22:39.650Z,101894.75
2023-03-02T00:23:41.553Z,101908.91
2023-03-02T00:24:43.418Z,101758.69
2023-03-02T00:25:45.294Z,101870.41
2023-03-02T00:26:47.133Z,101902.81
2023-03-02T00:27:49.178Z,101886.72
2023-03-02T00:28:51.362Z,101860.69
2023-03-02T00:29:53.407Z,101861.66
2023-03-02T00:30:55.815Z,101927.41
2023-03-02T00:31:57.731Z,101902.09
2023-03-02T00:32:59.610Z,101885.00
2023-03-02T00:34:01.426Z,101906.72
2023-03-02T00:35:03.839Z,101914.00
2023-03-02T00:36:06.082Z,101882.88
2023-03-02T00:37:07.903Z,101814.06
2023-03-02T00:38:09.803Z,101906.09
2023-03-02T00:39:11.624Z,101696.91
2023-03-02T00:40:13.833Z,101831.59
2023-03-02T00:41:16.456Z,101884.19
2023-03-02T00:42:18.524Z,101915.00
2023-03-02T00:43:22.888Z,101868.50
2023-03-02T00:44:24.916Z,101760.25
2023-03-02T00:45:26.797Z,101878.97
2023-03-02T00:46:28.781Z,101853.16
2023-03-02T00:47:32.925Z,101840.50
2023-03-02T00:48:34.850Z,101833.44
2023-03-02T00:49:36.918Z,101855.72
2023-03-02T00:50:41.086Z,101884.31
2023-03-02T00:51:42.941Z,101863.75
2023-03-02T00:52:44.764Z,101896.50
2023-03-02T00:53:47.061Z,101724.78
2023-03-02T00:54:48.886Z,101861.22
2023-03-02T00:55:54.876Z,101757.25
2023-03-02T00:56:58.094Z,101823.97
2023-03-02T00:58:00.049Z,101835.28
2023-03-02T00:59:06.649Z,101883.13
2023-03-02T01:00:10.009Z,101816.03
2023-03-02T01:01:15.770Z,101862.06
2023-03-02T01:02:21.882Z,101807.91
2023-03-02T01:03:24.774Z,101783.22
2023-03-02T01:04:39.417Z,101836.25
2023-03-02T01:05:41.498Z,101882.03
2023-03-02T01:06:47.266Z,101874.59
2023-03-02T01:07:49.147Z,101798.53
2023-03-02T01:08:51.286Z,101877.75
2023-03-02T01:09:53.144Z,101852.56
2023-03-02T01:10:55.154Z,101859.88
2023-03-02T01:11:57.140Z,101717.63
2023-03-02T01:12:59.039Z,101873.50
2023-03-02T01:14:00.853Z,101747.28
2023-03-02T01:15:03.320Z,101701.56
2023-03-02T01:16:05.788Z,101698.91
2023-03-02T01:17:08.314Z,101757.28
2023-03-02T01:18:12.133Z,101815.84
2023-03-02T01:19:15.410Z,101864.72
2023-03-02T01:20:18.066Z,101854.91
2023-03-02T01:21:20.053Z,101850.88
2023-03-02T01:22:22.750Z,101857.56
2023-03-02T01:23:24.581Z,101796.00
2023-03-02T01:24:26.458Z,101817.53
2023-03-02T01:25:28.437Z,101847.34
2023-03-02T01:26:30.465Z,101787.00
2023-03-02T01:27:33.337Z,101758.03
2023-03-02T01:28:35.329Z,101838.84
2023-03-02T01:29:37.673Z,101854.03
2023-03-02T01:30:39.793Z,101810.59
2023-03-02T01:31:41.641Z,101801.59
2023-03-02T01:32:43.541Z,101793.09
2023-03-02T01:33:45.414Z,101771.06
2023-03-02T01:34:47.206Z,101790.16
2023-03-02T01:35:49.434Z,101814.38
2023-03-02T01:36:51.241Z,101791.38
2023-03-02T01:37:53.122Z,101816.31
2023-03-02T01:38:55.105Z,101806.94
2023-03-02T01:39:56.973Z,101803.44
2023-03-02T01:40:58.774Z,101800.75
2023-03-02T01:42:00.811Z,101755.38
2023-03-02T01:43:04.830Z,101824.97
2023-03-02T01:44:12.647Z,101767.16
2023-03-02T01:45:59.379Z,101826.19
2023-03-02T01:47:23.371Z,101827.38
2023-03-02T01:49:00.717Z,101835.31
2023-03-02T01:50:27.004Z,101790.53
2023-03-02T01:51:38.273Z,101738.97
2023-03-02T01:52:40.567Z,101779.94
2023-03-02T01:53:46.820Z,101703.78
2023-03-02T01:54:50.273Z,101723.66
2023-03-02T01:55:53.478Z,101790.53
2023-03-02T01:56:59.146Z,101829.47
2023-03-02T01:58:03.824Z,101773.63
2023-03-02T01:59:10.929Z,101817.19
2023-03-02T02:00:35.013Z,101817.91
2023-03-02T02:01:39.566Z,101702.59
2023-03-02T02:02:42.077Z,101767.06
2023-03-02T02:03:47.688Z,101766.56
2023-03-02T02:04:50.782Z,101665.50
2023-03-02T02:06:12.151Z,101805.25
2023-03-02T02:07:15.138Z,101788.59
2023-03-02T02:08:17.256Z,101741.03
2023-03-02T02:09:22.684Z,101742.75
2023-03-02T02:10:24.607Z,101708.81
2023-03-02T02:11:26.682Z,101714.78
2023-03-02T02:12:28.621Z,101775.47
2023-03-02T02:13:30.728Z,101763.91
2023-03-02T02:14:32.858Z,101749.78
2023-03-02T02:15:34.921Z,101703.47
2023-03-02T02:16:38.247Z,101604.38
2023-03-02T02:17:40.753Z,101760.16
2023-03-02T02:18:44.565Z,101620.66
2023-03-02T02:20:20.160Z,101738.25
2023-03-02T02:21:24.592Z,101781.28
2023-03-02T02:22:32.901Z,101724.88
2023-03-02T02:23:44.089Z,101755.75
2023-03-02T02:25:00.341Z,101753.94
2023-03-02T02:26:12.953Z,101723.78
2023-03-02T02:27:15.199Z,101697.88
2023-03-02T02:28:25.347Z,101738.13
2023-03-02T02:29:45.628Z,101738.97
2023-03-02T02:30:52.568Z,101679.63
2023-03-02T02:32:24.351Z,101744.06
2023-03-02T02:33:27.635Z,101714.28
2023-03-02T02:34:34.831Z,101658.38
2023-03-02T02:35:38.692Z,101705.78
2023-03-02T02:36:45.810Z,101690.56
2023-03-02T02:37:56.469Z,101608.19
2023-03-02T02:39:02.487Z,101723.50
2023-03-02T02:40:09.703Z,101711.50
2023-03-02T02:41:20.370Z,101664.34
2023-03-02T02:42:34.517Z,101693.00
2023-03-02T02:43:36.460Z,101714.50
2023-03-02T02:44:39.017Z,101668.13
2023-03-02T02:45:41.634Z,101673.81
2023-03-02T02:46:44.950Z,101670.66
2023-03-02T02:47:47.726Z,101685.59
2023-03-02T02:48:49.624Z,101652.81
2023-03-02T02:49:55.729Z,101703.59
2023-03-02T02:51:03.351Z,101699.13
2023-03-02T02:52:06.580Z,101661.06
2023-03-02T02:53:25.005Z,101654.38
2023-03-02T02:54:28.853Z,101653.41
2023-03-02T02:55:33.473Z,101615.56
2023-03-02T02:56:38.345Z,101705.28
2023-03-02T02:57:41.830Z,101608.28
2023-03-02T02:58:48.527Z,101697.41
2023-03-02T02:59:56.089Z,101569.91
2023-03-02T03:00:59.435Z,101660.31
2023-03-02T03:02:02.485Z,101688.41
2023-03-02T03:03:30.703Z,101687.69
2023-03-02T03:04:35.724Z,101577.06
2023-03-02T03:05:37.556Z,101624.72
2023-03-02T03:06:50.667Z,101631.75
2023-03-02T03:07:53.285Z,101646.59
2023-03-02T03:08:58.746Z,101641.88
2023-03-02T03:10:12.664Z,101674.06
2023-03-02T03:11:26.698Z,101642.59
2023-03-02T03:12:32.037Z,101665.03
2023-03-02T03:13:34.259Z,101589.56
2023-03-02T03:14:40.544Z,101624.22
2023-03-02T03:15:43.770Z,101638.78
2023-03-02T03:16:47.921Z,101656.56
2023-03-02T03:17:58.180Z,101612.56
2023-03-02T03:19:31.069Z,101645.19
2023-03-02T03:20:33.899Z,101650.56
2023-03-02T03:21:36.309Z,101608.78
2023-03-02T03:22:38.904Z,101638.56
2023-03-02T03:23:42.642Z,101599.81
2023-03-02T03:24:45.889Z,101558.97
2023-03-02T03:25:49.930Z,101612.91
2023-03-02T03:26:54.240Z,101628.94
2023-03-02T03:27:56.352Z,101565.06
2023-03-02T03:28:58.491Z,101447.06
2023-03-02T03:30:02.102Z,101554.09
2023-03-02T03:31:06.363Z,101473.00
2023-03-02T03:32:09.253Z,101624.56
2023-03-02T03:33:11.175Z,101587.41
2023-03-02T03:34:14.481Z,101606.69
2023-03-02T03:35:16.543Z,101622.03
2023-03-02T03:36:19.104Z,101563.47
2023-03-02T03:37:21.642Z,101515.38
2023-03-02T03:38:23.901Z,101501.41
2023-03-02T03:39:26.077Z,101554.72
2023-03-02T03:40:29.105Z,101510.13
2023-03-02T03:41:31.534Z,101554.97
2023-03-02T03:42:33.849Z,101570.22
2023-03-02T03:43:35.896Z,101590.75
2023-03-02T03:44:38.139Z,101532.00
2023-03-02T03:45:40.200Z,101549.84
2023-03-02T03:46:43.395Z,101531.75
2023-03-02T03:47:45.491Z,101543.31
2023-03-02T03:48:47.509Z,101532.25
2023-03-02T03:49:49.480Z,101519.59
2023-03-02T03:50:51.633Z,101519.59
2023-03-02T03:51:54.136Z,101526.41
2023-03-02T03:52:56.519Z,101557.81
2023-03-02T03:54:08.188Z,101555.16
2023-03-02T03:55:14.100Z,101548.69
2023-03-02T03:56:18.303Z,101471.38
2023-03-02T03:57:20.403Z,101552.84
2023-03-02T03:58:22.436Z,101508.44
2023-03-02T03:59:25.741Z,101532.06
2023-03-02T04:00:33.861Z,101527.94
2023-03-02T04:01:48.137Z,101543.13
2023-03-02T04:02:57.279Z,101526.34
2023-03-02T04:04:02.730Z,101500.78
2023-03-02T04:05:06.533Z,101502.69
2023-03-02T04:06:09.136Z,101482.19
2023-03-02T04:07:11.591Z,101498.22
2023-03-02T04:08:13.679Z,101504.28
2023-03-02T04:09:18.105Z,101493.47
2023-03-02T04:10:20.748Z,101490.66
2023-03-02T04:11:23.705Z,101483.97
2023-03-02T04:12:25.629Z,101498.16
2023-03-02T04:13:28.438Z,101486.53
2023-03-02T04:14:31.216Z,101479.50
2023-03-02T04:15:33.410Z,101465.88
2023-03-02T04:16:36.906Z,101489.69
2023-03-02T04:17:38.788Z,101438.81
2023-03-02T04:18:40.743Z,101457.03
2023-03-02T04:19:42.623Z,101441.63
2023-03-02T04:20:44.984Z,101438.69
2023-03-02T04:21:51.011Z,101488.28
2023-03-02T04:22:55.504Z,101464.03
2023-03-02T04:23:57.675Z,101374.66
2023-03-02T04:24:59.593Z,101471.88
2023-03-02T04:26:05.213Z,101399.47
2023-03-02T04:27:08.012Z,101439.03
2023-03-02T04:28:10.295Z,101436.72
2023-03-02T04:29:14.922Z,101438.16
2023-03-02T04:30:21.017Z,101471.25
2023-03-02T04:31:23.166Z,101469.31
2023-03-02T04:32:25.126Z,101429.69
2023-03-02T04:33:30.183Z,101411.22
2023-03-02T04:34:32.503Z,101409.75
2023-03-02T04:35:34.616Z,101394.56
2023-03-02T04:36:39.222Z,101427.19
2023-03-02T04:37:44.447Z,101438.81
2023-03-02T04:38:47.013Z,101420.53
2023-03-02T04:39:51.645Z,101425.25
2023-03-02T04:40:53.469Z,101415.78
2023-03-02T04:41:55.831Z,101374.69
2023-03-02T04:42:57.689Z,101410.69
2023-03-02T04:43:59.569Z,101432.03
2023-03-02T04:45:02.258Z,101424.00
2023-03-02T04:46:04.383Z,101370.16
2023-03-02T04:47:06.272Z,101431.97
2023-03-02T04:48:08.438Z,101406.06
2023-03-02T04:49:10.503Z,101384.00
2023-03-02T04:50:14.887Z,101427.59
2023-03-02T04:51:24.316Z,101426.63
2023-03-02T04:52:26.524Z,101376.47
2023-03-02T04:53:28.369Z,101352.16
2023-03-02T04:54:30.293Z,101391.47
2023-03-02T04:55:32.246Z,101387.09
2023-03-02T04:56:35.089Z,101327.94
2023-03-02T04:57:37.170Z,101324.75
2023-03-02T04:58:39.016Z,101387.41
2023-03-02T04:59:40.897Z,101407.06
2023-03-02T05:00:42.804Z,101364.78
2023-03-02T05:01:47.922Z,101328.53
2023-03-02T05:02:49.999Z,101263.53
2023-03-02T05:03:51.971Z,101320.34
2023-03-02T05:04:53.782Z,101362.16
2023-03-02T05:05:57.202Z,101381.16
2023-03-02T05:06:59.421Z,101347.25
2023-03-02T05:08:01.285Z,101315.59
2023-03-02T05:09:03.159Z,101333.69
2023-03-02T05:10:05.309Z,101372.28
2023-03-02T05:11:08.297Z,101334.50
2023-03-02T05:12:10.184Z,101344.31
2023-03-02T05:13:12.134Z,101331.47
2023-03-02T05:14:14.070Z,101291.69
2023-03-02T05:15:16.037Z,101309.84
2023-03-02T05:16:18.898Z,101312.03
2023-03-02T05:17:20.966Z,101292.03
2023-03-02T05:18:23.447Z,101323.00
2023-03-02T05:19:25.603Z,101315.81
2023-03-02T05:20:30.382Z,101366.09
2023-03-02T05:21:32.614Z,101370.34
2023-03-02T05:22:34.537Z,101337.72
2023-03-02T05:23:36.414Z,101347.69
2023-03-02T05:24:38.343Z,101305.25
2023-03-02T05:25:40.287Z,101356.25
2023-03-02T05:26:42.505Z,101302.31
2023-03-02T05:27:44.411Z,101299.75
2023-03-02T05:28:46.564Z,101330.53
2023-03-02T05:29:48.372Z,101252.13
2023-03-02T05:30:50.782Z,101292.00
2023-03-02T05:31:52.732Z,101307.50
2023-03-02T05:32:55.250Z,101294.41
2023-03-02T05:33:58.047Z,101323.91
2023-03-02T05:35:00.562Z,101249.56
2023-03-02T05:36:02.583Z,101330.34
2023-03-02T05:37:04.485Z,101283.72
2023-03-02T05:38:06.750Z,101243.47
2023-03-02T05:39:09.445Z,101332.28
2023-03-02T05:40:18.002Z,101312.94
2023-03-02T05:41:19.909Z,101251.78
2023-03-02T05:42:21.757Z,101236.81
2023-03-02T05:43:23.852Z,101278.53
2023-03-02T05:44:25.783Z,101292.06
2023-03-02T05:45:35.148Z,101312.41
2023-03-02T05:46:37.355Z,101295.19
2023-03-02T05:47:39.299Z,101239.50
2023-03-02T05:48:42.304Z,101269.53
2023-03-02T05:49:44.211Z,101267.34
2023-03-02T05:50:46.431Z,101326.94
2023-03-02T05:51:48.268Z,101311.97
2023-03-02T05:52:50.608Z,101291.09
2023-03-02T05:53:52.472Z,101300.09
2023-03-02T05:54:54.286Z,101312.16
2023-03-02T05:55:56.335Z,101256.09
2023-03-02T05:56:58.854Z,101281.50
2023-03-02T05:58:00.682Z,101262.22
2023-03-02T05:59:02.661Z,101282.81
2023-03-02T06:00:06.194Z,101248.38
2023-03-02T06:01:15.568Z,101268.47
2023-03-02T06:02:17.577Z,101273.66
2023-03-02T06:03:19.835Z,101296.81
2023-03-02T06:04:21.647Z,101227.25
2023-03-02T06:05:24.656Z,101254.19
2023-03-02T06:06:26.539Z,101260.53
2023-03-02T06:07:29.973Z,101199.22
2023-03-02T06:08:31.940Z,101239.97
2023-03-02T06:09:33.945Z,101239.38
2023-03-02T06:10:36.295Z,101252.09
2023-03-02T06:11:38.118Z,101276.13
2023-03-02T06:12:40.877Z,101274.31
2023-03-02T06:13:42.740Z,101241.00
2023-03-02T06:14:44.689Z,101240.28
2023-03-02T06:15:46.714Z,101212.13
2023-03-02T06:16:49.044Z,101217.22
2023-03-02T06:17:51.289Z,101228.06
2023-03-02T06:18:53.066Z,101266.91
2023-03-02T06:19:54.857Z,101243.59
2023-03-02T06:20:56.824Z,101233.34
2023-03-02T06:21:58.842Z,101232.78
2023-03-02T06:23:00.713Z,101213.63
2023-03-02T06:24:02.541Z,101186.28
2023-03-02T06:25:05.315Z,101204.63
2023-03-02T06:26:12.197Z,101238.94
2023-03-02T06:27:14.674Z,101228.59
2023-03-02T06:28:19.850Z,101255.47
2023-03-02T06:29:22.550Z,101193.66
2023-03-02T06:30:26.062Z,101197.63
2023-03-02T06:31:28.051Z,101186.41
2023-03-02T06:32:34.210Z,101220.38
2023-03-02T06:33:36.152Z,101166.09
2023-03-02T06:34:37.952Z,101141.31
2023-03-02T06:35:39.927Z,101223.16
2023-03-02T06:36:41.864Z,101180.81
2023-03-02T06:37:44.487Z,101179.41
2023-03-02T06:38:46.514Z,101190.25
2023-03-02T06:39:48.382Z,101170.13
2023-03-02T06:40:50.158Z,101172.00
2023-03-02T06:41:52.137Z,101046.38
2023-03-02T06:42:53.928Z,101125.31
2023-03-02T06:43:55.745Z,101190.34
2023-03-02T06:44:57.858Z,101107.00
2023-03-02T06:46:00.875Z,101187.53
2023-03-02T06:47:02.848Z,101088.00
2023-03-02T06:48:05.421Z,101134.69
2023-03-02T06:49:07.842Z,101094.19
2023-03-02T06:50:10.544Z,101063.59
2023-03-02T06:51:12.825Z,101068.84
2023-03-02T06:52:14.718Z,101140.31
2023-03-02T06:53:18.529Z,101178.06
2023-03-02T06:54:21.668Z,101164.13
2023-03-02T06:55:24.989Z,101122.97
2023-03-02T06:56:27.413Z,101082.94
2023-03-02T06:57:33.910Z,101104.66
2023-03-02T06:58:36.402Z,101168.06
2023-03-02T06:59:38.226Z,101178.38
2023-03-02T07:00:40.371Z,101132.97
2023-03-02T07:01:42.421Z,101140.03
2023-03-02T07:02:45.260Z,101182.84
2023-03-02T07:03:47.764Z,101146.38
2023-03-02T07:04:49.570Z,101123.09
2023-03-02T07:05:52.308Z,101178.91
2023-03-02T07:06:54.806Z,101170.16
2023-03-02T07:07:56.598Z,101155.53
2023-03-02T07:08:58.458Z,101164.09
2023-03-02T07:10:00.471Z,101183.97
2023-03-02T07:11:06.621Z,101127.34
2023-03-02T07:12:08.426Z,101137.31
2023-03-02T07:13:10.226Z,101131.41
2023-03-02T07:14:12.014Z,101157.19
2023-03-02T07:15:14.553Z,101149.84
2023-03-02T07:16:17.923Z,101158.88
2023-03-02T07:17:19.825Z,101114.78
2023-03-02T07:18:21.844Z,101139.56
2023-03-02T07:19:23.677Z,101122.81
2023-03-02T07:20:25.562Z,101145.34
2023-03-02T07:21:28.019Z,101139.41
2023-03-02T07:22:29.869Z,101097.00
2023-03-02T07:23:31.931Z,101102.25
2023-03-02T07:24:33.758Z,101164.63
2023-03-02T07:25:37.054Z,101115.88
2023-03-02T07:26:38.944Z,101116.31
2023-03-02T07:27:40.962Z,101117.44
2023-03-02T07:28:44.487Z,101101.25
2023-03-02T07:29:46.309Z,101147.56
2023-03-02T07:30:48.335Z,101106.88
2023-03-02T07:31:55.738Z,101090.38
2023-03-02T07:32:57.743Z,101135.50
2023-03-02T07:33:59.612Z,101139.69
2023-03-02T07:35:01.412Z,101094.50
2023-03-02T07:36:03.552Z,101043.91
2023-03-02T07:37:05.423Z,101118.28
2023-03-02T07:38:07.259Z,101091.53
2023-03-02T07:39:09.123Z,101124.19
2023-03-02T07:40:12.771Z,101139.69
2023-03-02T07:41:18.831Z,101142.19
2023-03-02T07:42:20.728Z,101133.63
2023-03-02T07:43:28.793Z,101145.59
2023-03-02T07:44:31.445Z,101101.25
2023-03-02T07:45:33.357Z,101065.59
2023-03-02T07:46:35.242Z,101076.97
2023-03-02T07:47:37.227Z,101092.91
2023-03-02T07:48:39.051Z,101140.22
2023-03-02T07:49:41.088Z,101123.91
2023-03-02T07:50:42.934Z,101137.88
2023-03-02T07:51:44.905Z,101128.41
2023-03-02T07:52:46.766Z,101120.81
2023-03-02T07:53:48.605Z,101145.59
2023-03-02T07:54:51.069Z,101080.53
2023-03-02T07:55:52.956Z,101141.09
2023-03-02T07:56:54.735Z,101141.09
2023-03-02T07:57:56.949Z,101096.84
2023-03-02T07:58:58.915Z,101085.16
2023-03-02T08:00:02.023Z,101106.72
2023-03-02T08:01:13.553Z,101096.59
2023-03-02T08:02:17.441Z,101144.59
2023-03-02T08:03:19.234Z,101098.69
2023-03-02T08:04:21.135Z,101091.53
2023-03-02T08:05:22.943Z,101107.56
2023-03-02T08:06:24.783Z,101098.13
2023-03-02T08:07:26.725Z,101133.34
2023-03-02T08:08:28.501Z,101140.22
2023-03-02T08:09:30.550Z,101104.16
2023-03-02T08:10:35.085Z,101136.84
2023-03-02T08:11:36.911Z,101091.94
2023-03-02T08:12:38.828Z,101144.75
2023-03-02T08:13:41.177Z,101096.84
2023-03-02T08:14:42.995Z,101090.66
2023-03-02T08:15:44.819Z,101122.03
2023-03-02T08:16:46.820Z,101110.91
2023-03-02T08:17:49.223Z,101129.50
2023-03-02T08:18:51.001Z,101092.47
2023-03-02T08:19:52.912Z,101097.00
2023-03-02T08:20:55.030Z,101134.84
2023-03-02T08:21:56.993Z,101090.78
2023-03-02T08:22:58.841Z,101088.38
2023-03-02T08:24:00.692Z,101099.09
2023-03-02T08:25:03.564Z,101134.84
2023-03-02T08:26:05.383Z,101078.13
2023-03-02T08:27:08.185Z,101126.41
2023-03-02T08:28:10.207Z,101094.03
2023-03-02T08:29:12.366Z,101101.91
2023-03-02T08:30:14.531Z,101080.22
2023-03-02T08:31:16.613Z,101071.78
2023-03-02T08:32:18.409Z,101072.59
2023-03-02T08:33:20.333Z,101065.44
2023-03-02T08:34:22.210Z,101089.38
2023-03-02T08:35:24.228Z,101065.03
2023-03-02T08:36:26.509Z,101077.25
2023-03-02T08:37:28.746Z,101120.34
2023-03-02T08:38:31.505Z,101122.16
2023-03-02T08:39:33.637Z,101108.34
2023-03-02T08:40:35.419Z,101112.28
2023-03-02T08:41:37.544Z,101118.47
2023-03-02T08:42:39.431Z,101067.34
2023-03-02T08:43:41.663Z,101105.09
2023-03-02T08:44:44.013Z,101066.81
2023-03-02T08:45:46.346Z,101055.13
2023-03-02T08:46:49.820Z,101056.09
2023-03-02T08:47:54.863Z,101106.94
2023-03-02T08:48:56.868Z,101097.91
2023-03-02T08:49:58.663Z,101093.97
2023-03-02T08:51:07.171Z,101100.72
2023-03-02T08:52:09.063Z,101063.28
2023-03-02T08:53:10.860Z,101076.47
2023-03-02T08:54:13.024Z,101080.56
2023-03-02T08:55:15.071Z,101045.22
2023-03-02T08:56:19.532Z,101099.03
2023-03-02T08:57:21.508Z,101043.00
2023-03-02T08:58:23.457Z,101053.13
2023-03-02T08:59:25.301Z,101059.19
2023-03-02T09:00:27.160Z,101041.25
2023-03-02T09:01:32.426Z,101082.94
2023-03-02T09:02:34.625Z,101051.44
2023-03-02T09:03:36.417Z,101031.00
2023-03-02T09:04:38.837Z,101081.84
2023-03-02T09:05:41.409Z,101048.28
2023-03-02T09:06:45.100Z,101021.00
2023-03-02T09:07:46.908Z,101055.31
2023-03-02T09:08:49.035Z,101048.25
2023-03-02T09:09:51.011Z,101001.00
2023-03-02T09:12:07.779Z,101066.47
2023-03-02T09:13:09.592Z,101032.22
2023-03-02T09:14:11.563Z,101042.09
2023-03-02T09:15:13.437Z,101062.09
2023-03-02T09:16:15.867Z,101056.72
2023-03-02T09:17:17.983Z,101056.72
2023-03-02T09:18:19.806Z,101047.00
2023-03-02T09:19:21.617Z,101043.63
2023-03-02T09:20:23.887Z,101055.03
2023-03-02T09:21:26.423Z,101033.19
2023-03-02T09:22:28.804Z,101049.69
2023-03-02T09:23:31.442Z,101022.66
2023-03-02T09:24:33.234Z,101030.22
2023-03-02T09:25:35.111Z,101028.69
2023-03-02T09:26:38.331Z,101034.75
2023-03-02T09:27:40.137Z,101033.91
2023-03-02T09:28:42.025Z,101009.69
2023-03-02T09:40:25.084Z,101017.25
2023-03-02T09:42:10.392Z,100987.44
2023-03-02T09:43:18.176Z,100986.66
2023-03-02T09:44:40.785Z,100978.63
2023-03-02T09:46:05.186Z,100989.00
2023-03-02T09:47:34.602Z,101000.28
2023-03-02T09:48:55.136Z,100986.31
2023-03-02T09:50:21.392Z,100986.16
2023-03-02T09:51:39.761Z,100992.38
2023-03-02T09:52:49.631Z,100990.69
2023-03-02T09:54:07.426Z,101002.22
2023-03-02T09:55:32.478Z,100984.03
2023-03-02T09:56:38.172Z,100997.41
2023-03-02T09:57:40.171Z,100985.00
2023-03-02T09:58:47.652Z,100969.22
2023-03-02T09:59:59.864Z,100987.59
2023-03-02T10:01:17.636Z,100994.56
2023-03-02T10:02:43.118Z,100970.31
2023-03-02T10:03:54.671Z,100975.38
2023-03-02T10:05:00.772Z,100985.09
2023-03-02T10:06:02.555Z,100984.25
2023-03-02T10:07:22.992Z,100971.38
2023-03-02T10:08:31.173Z,100957.91
2023-03-02T10:09:33.047Z,100957.97
2023-03-02T10:10:45.958Z,100955.31
2023-03-02T10:11:59.929Z,100974.63
2023-03-02T10:13:16.793Z,100941.28
2023-03-02T10:14:27.013Z,100957.38
2023-03-02T10:15:39.990Z,100944.28
2023-03-02T10:17:19.669Z,100960.13
2023-03-02T10:18:45.518Z,100942.91
2023-03-02T10:19:55.474Z,100949.97
2023-03-02T10:21:01.899Z,100925.28
2023-03-02T10:22:11.828Z,100954.94
2023-03-02T10:23:50.489Z,100955.47
2023-03-02T10:25:12.673Z,100930.13
2023-03-02T10:26:27.571Z,100919.47
2023-03-02T10:27:39.717Z,100944.72
2023-03-02T10:28:52.574Z,100941.38
2023-03-02T10:30:08.091Z,100932.31
2023-03-02T10:31:25.989Z,100922.59
2023-03-02T10:32:35.984Z,100908.66
2023-03-02T10:33:40.591Z,100886.91
2023-03-02T10:34:42.548Z,100929.94
2023-03-02T10:35:48.352Z,100907.81
2023-03-02T10:36:50.262Z,100918.53
2023-03-02T10:37:58.404Z,100909.78
2023-03-02T10:39:00.996Z,100904.13
2023-03-02T10:40:02.907Z,100898.75
2023-03-02T10:41:08.681Z,100903.44
2023-03-02T10:42:22.504Z,100888.19
2023-03-02T10:43:31.771Z,100905.81
2023-03-02T10:44:40.900Z,100889.72
2023-03-02T10:45:42.986Z,100908.97
2023-03-02T10:46:46.405Z,100909.50
2023-03-02T10:47:48.351Z,100926.75
2023-03-02T10:48:59.712Z,100913.34
2023-03-02T10:50:01.565Z,100898.75
2023-03-02T10:51:03.656Z,100914.16
2023-03-02T10:52:16.745Z,100904.44
2023-03-02T10:53:18.983Z,100901.38
2023-03-02T10:54:20.944Z,100908.66
2023-03-02T10:55:22.745Z,100897.38
2023-03-02T10:56:24.780Z,100892.63
2023-03-02T10:57:30.855Z,100905.22
2023-03-02T10:58:34.358Z,100908.09
2023-03-02T10:59:43.851Z,100908.97
2023-03-02T11:00:56.482Z,100910.41
2023-03-02T11:02:03.035Z,100897.94
2023-03-02T11:03:20.296Z,100924.88
2023-03-02T11:04:22.374Z,100937.16
2023-03-02T11:05:38.259Z,100917.31
2023-03-02T11:06:40.132Z,100907.81
2023-03-02T11:07:52.809Z,100893.72
2023-03-02T11:09:05.734Z,100916.84
2023-03-02T11:10:19.025Z,100909.78
2023-03-02T11:11:23.560Z,100886.66
2023-03-02T11:12:25.562Z,100907.41
2023-03-02T11:13:34.839Z,100901.38
2023-03-02T11:14:36.653Z,100891.56
2023-03-02T11:15:45.889Z,100901.13
2023-03-02T11:16:48.041Z,100877.69
2023-03-02T11:17:55.622Z,100899.13
2023-03-02T11:19:23.293Z,100893.19
2023-03-02T11:20:30.039Z,100882.47
2023-03-02T11:21:44.295Z,100891.63
2023-03-02T11:23:21.365Z,100884.16
2023-03-02T11:24:39.409Z,100891.03
2023-03-02T11:25:48.526Z,100858.63
2023-03-02T11:26:54.090Z,100897.00
2023-03-02T11:28:54.383Z,100906.13
2023-03-02T11:30:02.076Z,100891.72
2023-03-02T11:31:11.459Z,100901.38
2023-03-02T11:32:25.161Z,100918.63
2023-03-02T11:33:53.206Z,100894.63
2023-03-02T11:35:01.554Z,100910.56
2023-03-02T11:36:14.602Z,100901.00
2023-03-02T11:37:45.361Z,100903.91
2023-03-02T11:38:56.417Z,100907.19
2023-03-02T11:40:26.426Z,100899.00
2023-03-02T11:41:34.626Z,100912.25
2023-03-02T11:42:41.095Z,100910.72
2023-03-02T11:43:42.858Z,100901.00
2023-03-02T11:44:46.302Z,100917.38
2023-03-02T11:46:10.843Z,100900.91
2023-03-02T11:47:16.486Z,100915.38
2023-03-02T11:48:36.513Z,100910.34
2023-03-02T11:49:43.512Z,100904.28
2023-03-02T11:51:10.989Z,100911.84
2023-03-02T11:52:36.668Z,100910.72
2023-03-02T11:53:58.304Z,100918.06
2023-03-02T11:55:12.458Z,100912.53
2023-03-02T11:56:14.294Z,100906.66
2023-03-02T11:57:35.782Z,100912.16
2023-03-02T11:58:39.182Z,100935.59
2023-03-02T11:59:41.045Z,100912.63
2023-03-02T12:00:43.405Z,100910.56
2023-03-02T12:01:50.170Z,100906.88
2023-03-02T12:03:05.379Z,100917.31
2023-03-02T12:04:25.569Z,100927.16
2023-03-02T12:05:30.441Z,100913.06
2023-03-02T12:06:38.849Z,100919.00
2023-03-02T12:07:40.692Z,100927.03
2023-03-02T12:08:46.570Z,100928.63
2023-03-02T12:10:24.058Z,100906.31
2023-03-02T12:11:34.268Z,100921.38
2023-03-02T12:12:46.878Z,100914.31
2023-03-02T12:13:54.777Z,100903.59
2023-03-02T12:14:56.652Z,100931.41
2023-03-02T12:15:58.984Z,100919.13
2023-03-02T12:17:26.605Z,100919.69
2023-03-02T12:18:41.281Z,100919.69
2023-03-02T12:19:45.230Z,100924.03
2023-03-02T12:21:09.184Z,100917.31
2023-03-02T12:22:14.575Z,100934.75
2023-03-02T12:23:24.555Z,100923.34
2023-03-02T12:24:32.824Z,100921.66
2023-03-02T12:25:43.996Z,100931.53
2023-03-02T12:26:45.802Z,100932.38
2023-03-02T12:27:50.934Z,100932.31
2023-03-02T12:29:01.677Z,100926.34
2023-03-02T12:30:15.766Z,100932.38
2023-03-02T12:31:17.612Z,100943.41
2023-03-02T12:32:19.404Z,100945.09
2023-03-02T12:33:21.807Z,100921.13
2023-03-02T12:34:43.201Z,100935.22
2023-03-02T12:35:46.116Z,100904.78
2023-03-02T12:36:50.112Z,100933.53
2023-03-02T12:37:58.683Z,100924.94
2023-03-02T12:39:12.467Z,100937.19